createdAt,value
2023-05-06T00:01:10.447Z,18.02
2023-05-06T00:06:06.439Z,22.05
2023-05-06T00:08:33.237Z,23.25
2023-05-06T00:10:59.963Z,22.60
2023-05-06T00:13:26.637Z,17.10
2023-05-06T00:15:53.364Z,23.02
2023-05-06T00:18:22.490Z,27.90
2023-05-06T00:20:49.627Z,16.77
2023-05-06T00:23:16.430Z,21.40
2023-05-06T00:25:43.119Z,19.30
2023-05-06T00:28:09.818Z,20.63
2023-05-06T00:30:36.475Z,20.60
2023-05-06T00:33:03.306Z,19.55
2023-05-06T00:35:30.776Z,18.38
2023-05-06T00:38:11.070Z,20.95
2023-05-06T00:40:38.021Z,21.80
2023-05-06T00:43:04.672Z,21.20
2023-05-06T00:45:31.354Z,26.42
2023-05-06T00:47:58.319Z,26.92
2023-05-06T00:50:25.914Z,15.88
2023-05-06T00:52:54.738Z,20.42
2023-05-06T00:55:22.168Z,25.55
2023-05-06T00:57:51.989Z,23.23
2023-05-06T01:02:47.881Z,17.33
2023-05-06T01:05:16.094Z,23.95
2023-05-06T01:07:42.747Z,19.90
2023-05-06T01:10:18.907Z,21.92
2023-05-06T01:13:12.462Z,28.25
2023-05-06T01:15:45.424Z,25.42
2023-05-06T01:20:43.793Z,27.00
2023-05-06T01:23:13.238Z,18.95
2023-05-06T01:28:08.603Z,20.40
2023-05-06T01:30:38.798Z,25.70
2023-05-06T01:35:42.735Z,19.55
2023-05-06T01:38:09.400Z,24.73
2023-05-06T01:40:36.412Z,23.45
2023-05-06T01:43:05.232Z,21.95
2023-05-06T01:45:33.930Z,28.40
2023-05-06T01:48:01.003Z,25.15
2023-05-06T01:50:27.642Z,31.63
2023-05-06T01:52:54.286Z,28.45
2023-05-06T02:05:03.092Z,24.98
2023-05-06T02:07:30.295Z,19.52
2023-05-06T02:09:57.044Z,20.40
2023-05-06T02:14:49.065Z,27.13
2023-05-06T02:17:15.984Z,29.38
2023-05-06T02:19:42.685Z,26.58
2023-05-06T02:22:09.420Z,26.63
2023-05-06T02:24:36.096Z,25.05
2023-05-06T02:27:04.294Z,20.65
2023-05-06T02:29:30.930Z,27.42
2023-05-06T02:31:57.698Z,28.08
2023-05-06T02:34:24.464Z,21.77
2023-05-06T02:36:51.129Z,26.75
2023-05-06T02:39:17.724Z,27.05
2023-05-06T02:41:44.442Z,27.15
2023-05-06T02:44:11.259Z,23.20
2023-05-06T02:46:37.881Z,23.73
2023-05-06T02:51:30.081Z,21.27
2023-05-06T02:53:56.865Z,29.90
2023-05-06T02:56:23.588Z,23.13
2023-05-06T02:58:50.355Z,24.40
2023-05-06T03:01:17.061Z,29.13
2023-05-06T03:06:09.094Z,32.33
2023-05-06T03:08:35.766Z,27.17
2023-05-06T03:11:03.516Z,25.48
2023-05-06T03:13:30.257Z,25.15
2023-05-06T03:15:57.174Z,27.73
2023-05-06T03:18:24.248Z,32.50
2023-05-06T03:20:51.234Z,25.33
2023-05-06T03:23:17.860Z,22.58
2023-05-06T03:25:44.867Z,24.35
2023-05-06T03:28:12.028Z,27.48
2023-05-06T03:30:39.858Z,21.08
2023-05-06T03:35:32.026Z,24.85
2023-05-06T03:38:00.467Z,30.02
2023-05-06T03:40:34.584Z,23.27
2023-05-06T03:43:01.408Z,20.13
2023-05-06T03:45:28.347Z,22.35
2023-05-06T03:47:55.032Z,29.80
2023-05-06T03:50:23.414Z,24.63
2023-05-06T03:52:50.038Z,23.42
2023-05-06T03:55:16.680Z,25.05
2023-05-06T03:57:43.821Z,29.05
2023-05-06T04:00:10.763Z,30.17
2023-05-06T04:02:37.595Z,28.80
2023-05-06T04:05:05.728Z,27.70
2023-05-06T04:07:32.445Z,34.90
2023-05-06T04:12:24.571Z,24.98
2023-05-06T04:14:52.270Z,27.25
2023-05-06T04:19:44.670Z,33.30
2023-05-06T04:22:11.421Z,28.45
2023-05-06T04:27:04.338Z,35.60
2023-05-06T04:29:31.181Z,34.42
2023-05-06T04:34:27.946Z,24.10
2023-05-06T04:36:58.501Z,28.80
2023-05-06T04:39:25.714Z,24.90
2023-05-06T04:41:52.502Z,29.88
2023-05-06T04:44:19.815Z,31.70
2023-05-06T04:49:13.102Z,31.23
2023-05-06T04:51:40.432Z,33.38
2023-05-06T04:54:07.156Z,29.70
2023-05-06T04:56:34.469Z,30.58
2023-05-06T05:06:54.864Z,34.47
2023-05-06T05:11:48.503Z,33.90
2023-05-06T05:14:15.209Z,34.22
2023-05-06T05:19:09.098Z,37.28
2023-05-06T05:21:36.543Z,27.15
2023-05-06T05:24:04.260Z,30.38
2023-05-06T05:26:31.403Z,32.80
2023-05-06T05:28:59.652Z,23.98
2023-05-06T05:36:37.304Z,19.10
2023-05-06T05:39:07.347Z,20.83
2023-05-06T05:46:24.901Z,17.48
2023-05-06T05:48:52.119Z,20.52
2023-05-06T05:51:21.751Z,15.55
2023-05-06T05:53:48.352Z,15.73
2023-05-06T05:56:14.930Z,11.63
2023-05-06T05:58:42.091Z,14.63
2023-05-06T06:01:09.310Z,22.65
2023-05-06T06:03:36.087Z,28.77
2023-05-06T06:06:05.170Z,24.75
2023-05-06T06:08:32.540Z,19.90
2023-05-06T06:13:31.808Z,19.70
2023-05-06T06:23:16.240Z,17.90
2023-05-06T06:25:43.092Z,11.77
2023-05-06T06:28:10.173Z,13.52
2023-05-06T06:30:36.771Z,16.02
2023-05-06T06:33:03.619Z,20.08
2023-05-06T06:35:30.386Z,13.73
2023-05-06T06:37:58.860Z,12.82
2023-05-06T06:40:25.494Z,11.27
2023-05-06T06:42:52.164Z,14.02
2023-05-06T06:45:18.905Z,14.38
2023-05-06T06:52:37.046Z,14.88
2023-05-06T06:55:03.902Z,13.88
2023-05-06T06:57:30.575Z,13.32
2023-05-06T06:59:57.273Z,11.52
2023-05-06T07:02:24.048Z,12.52
2023-05-06T07:04:50.853Z,10.18
2023-05-06T07:07:17.514Z,16.80
2023-05-06T07:14:35.357Z,13.02
2023-05-06T07:19:28.131Z,9.65
2023-05-06T07:21:55.097Z,13.10
2023-05-06T07:24:22.339Z,10.38
2023-05-06T07:26:49.263Z,13.30
2023-05-06T07:29:16.037Z,14.63
2023-05-06T07:31:42.825Z,13.80
2023-05-06T07:34:09.500Z,11.38
2023-05-06T07:36:40.639Z,12.60
2023-05-06T07:39:07.898Z,15.13
2023-05-06T07:41:34.902Z,13.63
2023-05-06T07:44:01.632Z,17.23
2023-05-06T07:46:28.362Z,13.68
2023-05-06T07:48:55.176Z,13.38
2023-05-06T07:51:21.920Z,13.50
2023-05-06T08:18:20.958Z,13.88
2023-05-06T08:25:39.786Z,15.50
2023-05-06T08:28:06.512Z,13.85
2023-05-06T08:32:58.671Z,14.85
2023-05-06T08:35:25.439Z,16.95
2023-05-06T08:37:52.214Z,17.23
2023-05-06T08:40:20.301Z,11.40
2023-05-06T08:42:50.567Z,16.27
2023-05-06T08:45:17.924Z,19.77
2023-05-06T08:47:45.056Z,13.77
2023-05-06T08:50:12.261Z,17.60
2023-05-06T09:00:31.593Z,19.35
2023-05-06T09:02:58.376Z,18.23
2023-05-06T09:05:25.054Z,14.07
2023-05-06T09:12:44.391Z,17.98
2023-05-06T09:20:02.258Z,17.67
2023-05-06T09:22:31.712Z,23.17
2023-05-06T09:24:58.640Z,18.80
2023-05-06T09:32:33.835Z,13.75
2023-05-06T09:35:02.343Z,21.55
2023-05-06T09:37:29.383Z,17.98
2023-05-06T09:39:58.271Z,15.77
2023-05-06T09:42:26.971Z,19.75
2023-05-06T09:47:19.906Z,18.88
2023-05-06T09:49:46.728Z,12.88
2023-05-06T09:54:40.006Z,15.15
2023-05-06T09:57:07.341Z,19.52
2023-05-06T09:59:34.244Z,16.17
2023-05-06T10:02:01.576Z,12.70
2023-05-06T10:04:29.900Z,20.45
2023-05-06T10:06:58.001Z,14.10
2023-05-06T10:09:25.090Z,15.95
2023-05-06T10:11:52.352Z,14.23
2023-05-06T10:19:50.541Z,15.77
2023-05-06T10:22:36.009Z,12.00
2023-05-06T10:27:41.814Z,18.52
2023-05-06T10:30:09.665Z,14.32
2023-05-06T10:32:38.627Z,15.25
2023-05-06T10:35:28.052Z,12.35
2023-05-06T10:42:46.225Z,15.80
2023-05-06T10:47:57.942Z,12.38
2023-05-06T10:52:52.219Z,15.60
2023-05-06T10:55:45.030Z,12.10
2023-05-06T10:58:11.706Z,14.65
2023-05-06T11:00:38.599Z,12.50
2023-05-06T11:05:32.264Z,13.05
2023-05-06T11:08:09.958Z,9.77
2023-05-06T11:10:37.057Z,10.38
2023-05-06T11:13:18.878Z,8.30
2023-05-06T11:15:46.493Z,10.60
2023-05-06T11:18:29.375Z,13.52
2023-05-06T11:21:04.843Z,9.20
2023-05-06T11:26:13.193Z,13.95
2023-05-06T11:28:40.491Z,10.30
2023-05-06T11:31:07.995Z,7.18
2023-05-06T11:33:35.948Z,11.75
2023-05-06T11:36:03.391Z,4.05
2023-05-06T11:41:11.829Z,13.23
2023-05-06T11:43:38.682Z,9.50
2023-05-06T11:50:56.884Z,10.10
2023-05-06T11:53:23.993Z,11.63
2023-05-06T11:55:52.638Z,6.88
2023-05-06T11:58:26.541Z,9.15
2023-05-06T12:09:06.902Z,7.03
2023-05-06T12:14:01.101Z,10.65
2023-05-06T12:16:28.174Z,9.73
2023-05-06T12:40:54.753Z,12.98
2023-05-06T12:53:34.544Z,8.80
2023-05-06T12:56:01.296Z,14.60
2023-05-06T12:58:27.971Z,8.88
2023-05-06T13:03:20.252Z,5.20
2023-05-06T13:05:50.078Z,6.97
2023-05-06T13:10:42.486Z,9.63
2023-05-06T13:13:09.283Z,10.35
2023-05-06T13:18:02.506Z,9.60
2023-05-06T13:20:29.367Z,7.35
2023-05-06T13:22:56.022Z,10.52
2023-05-06T13:25:23.045Z,7.25
2023-05-06T13:27:49.717Z,8.10
2023-05-06T13:30:17.179Z,5.93
2023-05-06T13:32:43.881Z,9.90
2023-05-06T13:35:10.715Z,6.68
2023-05-06T13:40:03.609Z,10.07
2023-05-06T13:42:30.480Z,8.65
2023-05-06T13:44:57.398Z,8.05
2023-05-06T13:49:49.563Z,8.88
2023-05-06T13:52:16.241Z,11.77
2023-05-06T13:59:34.728Z,12.52
2023-05-06T14:02:02.071Z,10.02
2023-05-06T14:04:28.910Z,6.93
2023-05-06T14:06:56.048Z,8.40
2023-05-06T14:09:22.689Z,9.20
2023-05-06T14:11:49.580Z,15.48
2023-05-06T14:14:16.437Z,7.63
2023-05-06T14:19:08.454Z,12.15
2023-05-06T14:21:35.134Z,11.90
2023-05-06T14:31:18.723Z,11.07
2023-05-06T14:33:45.564Z,9.32
2023-05-06T14:36:17.458Z,11.93
2023-05-06T14:38:44.155Z,10.90
2023-05-06T14:41:10.838Z,10.23
2023-05-06T14:43:37.493Z,10.20
2023-05-06T14:46:04.347Z,8.15
2023-05-06T14:48:32.046Z,15.15
2023-05-06T14:50:59.397Z,15.93
2023-05-06T14:55:51.454Z,11.98
2023-05-06T14:58:18.228Z,8.48
2023-05-06T15:00:45.189Z,12.55
2023-05-06T15:03:11.909Z,12.07
2023-05-06T15:05:38.687Z,7.50
2023-05-06T15:10:31.256Z,7.57
2023-05-06T15:12:58.045Z,11.07
2023-05-06T15:15:26.077Z,8.88
2023-05-06T15:17:52.904Z,10.50
2023-05-06T15:27:37.471Z,10.02
2023-05-06T15:30:04.677Z,10.45
2023-05-06T15:32:31.540Z,10.60
2023-05-06T15:39:49.853Z,9.75
2023-05-06T15:42:17.144Z,6.50
2023-05-06T15:44:43.986Z,9.60
2023-05-06T15:56:52.436Z,8.30
2023-05-06T15:59:19.146Z,9.98
2023-05-06T16:04:16.115Z,10.63
2023-05-06T16:06:42.985Z,10.10
2023-05-06T16:09:10.758Z,9.70
2023-05-06T16:11:37.430Z,8.60
2023-05-06T16:14:04.363Z,13.35
2023-05-06T16:26:13.701Z,5.30
2023-05-06T16:28:41.124Z,10.65
2023-05-06T16:33:33.189Z,9.13
2023-05-06T16:35:59.858Z,8.13
2023-05-06T16:38:26.562Z,7.80
2023-05-06T16:40:53.380Z,8.57
2023-05-06T16:43:20.179Z,10.50
2023-05-06T16:48:13.831Z,4.45
2023-05-06T16:50:41.066Z,7.45
2023-05-06T16:55:33.685Z,8.48
2023-05-06T16:58:04.151Z,10.18
2023-05-06T17:02:57.534Z,8.90
2023-05-06T17:05:24.742Z,6.53
2023-05-06T17:12:42.328Z,5.85
2023-05-06T17:20:00.255Z,8.50
2023-05-06T17:22:27.408Z,7.82
2023-05-06T17:24:54.383Z,10.73
2023-05-06T17:27:21.101Z,6.03
2023-05-06T17:32:13.262Z,10.85
2023-05-06T17:34:39.986Z,10.88
2023-05-06T17:37:06.692Z,8.88
2023-05-06T17:39:33.436Z,5.28
2023-05-06T17:42:00.404Z,7.55
2023-05-06T17:44:27.097Z,8.07
2023-05-06T17:46:54.110Z,5.93
2023-05-06T17:49:21.215Z,8.60
2023-05-06T17:51:51.050Z,5.40
2023-05-06T17:54:18.050Z,7.35
2023-05-06T17:56:52.893Z,8.80
2023-05-06T17:59:20.121Z,7.70
2023-05-06T18:01:46.868Z,5.38
2023-05-06T18:06:41.391Z,6.07
2023-05-06T18:09:08.587Z,8.35
2023-05-06T18:11:35.365Z,6.45
2023-05-06T18:14:02.089Z,8.82
2023-05-06T18:16:28.863Z,7.57
2023-05-06T18:18:55.571Z,7.53
2023-05-06T18:21:22.520Z,6.57
2023-05-06T18:23:51.441Z,8.38
2023-05-06T18:26:39.536Z,7.40
2023-05-06T18:34:00.361Z,8.13
2023-05-06T18:36:27.071Z,10.05
2023-05-06T18:38:53.913Z,6.57
2023-05-06T18:41:21.038Z,8.63
2023-05-06T18:43:47.730Z,9.13
2023-05-06T18:46:14.380Z,6.93
2023-05-06T18:51:19.125Z,9.10
2023-05-06T18:53:45.812Z,9.18
2023-05-06T18:56:13.417Z,9.35
2023-05-06T18:58:40.688Z,7.55
2023-05-06T19:01:08.258Z,8.98
2023-05-06T19:03:35.762Z,12.57
2023-05-06T19:06:03.272Z,13.05
2023-05-06T19:08:31.020Z,13.45
2023-05-06T19:11:01.152Z,10.25
2023-05-06T19:18:19.496Z,8.70
2023-05-06T19:20:46.496Z,11.30
2023-05-06T19:23:13.328Z,10.40
2023-05-06T19:25:40.089Z,9.82
2023-05-06T19:28:06.836Z,10.20
2023-05-06T19:30:34.925Z,9.23
2023-05-06T19:37:53.187Z,9.38
2023-05-06T19:40:20.033Z,11.27
2023-05-06T19:42:46.708Z,10.02
2023-05-06T19:45:14.589Z,8.82
2023-05-06T19:47:42.718Z,12.40
2023-05-06T19:50:09.730Z,14.73
2023-05-06T19:52:36.662Z,12.80
2023-05-06T19:55:03.599Z,9.10
2023-05-06T19:57:31.895Z,12.27
2023-05-06T19:59:58.559Z,11.60
2023-05-06T20:04:51.084Z,11.82
2023-05-06T20:07:21.198Z,13.02
2023-05-06T20:14:47.586Z,14.10
2023-05-06T20:17:16.965Z,14.30
2023-05-06T20:19:44.567Z,8.63
2023-05-06T20:27:02.875Z,14.05
2023-05-06T20:36:56.911Z,9.25
2023-05-06T20:39:23.856Z,11.30
2023-05-06T20:41:50.573Z,9.32
2023-05-06T20:54:00.955Z,12.05
2023-05-06T20:56:28.145Z,11.63
2023-05-06T21:01:21.985Z,7.75
2023-05-06T21:03:49.215Z,10.93
2023-05-06T21:06:16.794Z,7.53
2023-05-06T21:11:09.286Z,9.73
2023-05-06T21:13:35.984Z,7.38
2023-05-06T21:25:45.756Z,6.72
2023-05-06T21:28:13.704Z,5.15
2023-05-06T21:33:08.295Z,9.05
2023-05-06T21:35:35.098Z,7.63
2023-05-06T21:42:52.767Z,8.38
2023-05-06T21:47:46.772Z,6.35
2023-05-06T21:50:13.595Z,7.93
2023-05-06T21:52:40.616Z,7.88
2023-05-06T21:55:08.079Z,6.95
2023-05-06T21:57:34.899Z,8.13
2023-05-06T22:00:01.873Z,8.70
2023-05-06T22:02:34.862Z,8.02
2023-05-06T22:05:01.651Z,6.55
2023-05-06T22:07:28.311Z,6.05
2023-05-06T22:09:55.020Z,9.15
2023-05-06T22:19:39.051Z,9.20
2023-05-06T22:22:06.120Z,5.18
2023-05-06T22:24:32.833Z,6.65
2023-05-06T22:29:25.041Z,8.23
2023-05-06T22:31:51.851Z,7.45
2023-05-06T22:36:44.049Z,7.80
2023-05-06T22:39:10.744Z,7.15
2023-05-06T22:44:03.019Z,4.97
2023-05-06T22:46:29.887Z,10.13
2023-05-06T22:51:22.109Z,8.45
2023-05-06T22:53:48.854Z,7.95
2023-05-06T22:58:41.102Z,8.40
2023-05-06T23:01:07.958Z,11.07
2023-05-06T23:06:00.738Z,9.50
2023-05-06T23:08:27.442Z,10.32
2023-05-06T23:10:54.223Z,14.05
2023-05-06T23:13:21.184Z,9.77
2023-05-06T23:15:47.846Z,11.50
2023-05-06T23:18:14.604Z,9.57
2023-05-06T23:20:42.319Z,12.18
2023-05-06T23:23:10.768Z,11.13
2023-05-06T23:25:37.603Z,10.40
2023-05-06T23:28:04.482Z,9.38
2023-05-06T23:30:31.281Z,8.50
2023-05-06T23:32:58.107Z,9.77
2023-05-06T23:35:24.901Z,7.85
2023-05-06T23:37:51.630Z,8.50
2023-05-06T23:42:43.746Z,10.55
2023-05-06T23:45:10.617Z,7.45
2023-05-06T23:47:37.522Z,9.23
2023-05-06T23:50:04.346Z,12.65
2023-05-06T23:52:30.988Z,8.05
2023-05-06T23:54:57.672Z,8.57
2023-05-06T23:57:24.293Z,8.73
2023-05-06T23:59:50.988Z,10.35
